sensor_id;sensor_type;location;lat;lon;timestamp;temperature;humidity
7894;DHT22;51343;51.396;6.656;2022-09-12T00:01:11;12.70;99.90
7894;DHT22;51343;51.396;6.656;2022-09-12T00:03:38;12.60;99.90
7894;DHT22;51343;51.396;6.656;2022-09-12T00:06:10;12.60;99.90
7894;DHT22;51343;51.396;6.656;2022-09-12T00:08:38;12.60;99.90
7894;DHT22;51343;51.396;6.656;2022-09-12T00:11:05;12.60;99.90
7894;DHT22;51343;51.396;6.656;2022-09-12T00:13:32;12.60;99.90
7894;DHT22;51343;51.396;6.656;2022-09-12T00:15:59;12.60;99.90
7894;DHT22;51343;51.396;6.656;2022-09-12T00:18:26;12.60;99.90
7894;DHT22;51343;51.396;6.656;2022-09-12T00:20:52;12.60;99.90
7894;DHT22;51343;51.396;6.656;2022-09-12T00:23:20;12.60;99.90
7894;DHT22;51343;51.396;6.656;2022-09-12T00:25:47;12.50;99.90
7894;DHT22;51343;51.396;6.656;2022-09-12T00:28:15;12.50;99.90
7894;DHT22;51343;51.396;6.656;2022-09-12T00:30:42;12.50;99.90
7894;DHT22;51343;51.396;6.656;2022-09-12T00:33:09;12.50;99.90
7894;DHT22;51343;51.396;6.656;2022-09-12T00:35:39;12.40;99.90
7894;DHT22;51343;51.396;6.656;2022-09-12T00:38:06;12.50;99.90
7894;DHT22;51343;51.396;6.656;2022-09-12T00:40:34;12.40;99.90
7894;DHT22;51343;51.396;6.656;2022-09-12T00:43:01;12.50;99.90
7894;DHT22;51343;51.396;6.656;2022-09-12T00:45:28;12.40;99.90
7894;DHT22;51343;51.396;6.656;2022-09-12T00:47:55;12.40;99.90
7894;DHT22;51343;51.396;6.656;2022-09-12T00:50:23;12.40;99.90
7894;DHT22;51343;51.396;6.656;2022-09-12T00:52:51;12.40;99.90
7894;DHT22;51343;51.396;6.656;2022-09-12T00:55:19;12.40;99.90
7894;DHT22;51343;51.396;6.656;2022-09-12T00:57:50;12.40;99.90
7894;DHT22;51343;51.396;6.656;2022-09-12T01:00:20;12.40;99.90
7894;DHT22;51343;51.396;6.656;2022-09-12T01:02:48;12.40;99.90
7894;DHT22;51343;51.396;6.656;2022-09-12T01:05:15;12.40;99.90
7894;DHT22;51343;51.396;6.656;2022-09-12T01:07:42;12.50;99.90
7894;DHT22;51343;51.396;6.656;2022-09-12T01:10:12;12.40;99.90
7894;DHT22;51343;51.396;6.656;2022-09-12T01:12:40;12.40;99.90
7894;DHT22;51343;51.396;6.656;2022-09-12T01:15:09;12.40;99.90
7894;DHT22;51343;51.396;6.656;2022-09-12T01:17:38;12.40;99.90
7894;DHT22;51343;51.396;6.656;2022-09-12T01:25:42;12.40;99.90
7894;DHT22;51343;51.396;6.656;2022-09-12T01:28:21;12.30;99.90
7894;DHT22;51343;51.396;6.656;2022-09-12T01:30:57;12.30;99.90
7894;DHT22;51343;51.396;6.656;2022-09-12T01:33:38;12.30;99.90
7894;DHT22;51343;51.396;6.656;2022-09-12T01:36:24;12.20;99.90
7894;DHT22;51343;51.396;6.656;2022-09-12T01:38:55;12.20;99.90
7894;DHT22;51343;51.396;6.656;2022-09-12T01:41:25;12.20;99.90
7894;DHT22;51343;51.396;6.656;2022-09-12T01:43:56;12.10;99.90
7894;DHT22;51343;51.396;6.656;2022-09-12T01:46:28;12.10;99.90
7894;DHT22;51343;51.396;6.656;2022-09-12T01:48:57;12.10;99.90
7894;DHT22;51343;51.396;6.656;2022-09-12T01:51:26;12.10;99.90
7894;DHT22;51343;51.396;6.656;2022-09-12T01:53:57;12.10;99.90
7894;DHT22;51343;51.396;6.656;2022-09-12T01:56:28;12.00;99.90
7894;DHT22;51343;51.396;6.656;2022-09-12T01:58:58;12.10;99.90
7894;DHT22;51343;51.396;6.656;2022-09-12T02:01:28;12.00;99.90
7894;DHT22;51343;51.396;6.656;2022-09-12T02:03:57;12.10;99.90
7894;DHT22;51343;51.396;6.656;2022-09-12T02:06:26;12.10;99.90
7894;DHT22;51343;51.396;6.656;2022-09-12T02:08:55;12.10;99.90
7894;DHT22;51343;51.396;6.656;2022-09-12T02:11:23;12.10;99.90
7894;DHT22;51343;51.396;6.656;2022-09-12T02:13:51;12.10;99.90
7894;DHT22;51343;51.396;6.656;2022-09-12T02:16:20;12.10;99.90
7894;DHT22;51343;51.396;6.656;2022-09-12T02:18:52;12.10;99.90
7894;DHT22;51343;51.396;6.656;2022-09-12T02:21:19;12.00;99.90
7894;DHT22;51343;51.396;6.656;2022-09-12T02:23:48;12.10;99.90
7894;DHT22;51343;51.396;6.656;2022-09-12T02:26:18;12.10;99.90
7894;DHT22;51343;51.396;6.656;2022-09-12T02:28:45;12.10;99.90
7894;DHT22;51343;51.396;6.656;2022-09-12T02:31:13;12.10;99.90
7894;DHT22;51343;51.396;6.656;2022-09-12T02:33:44;12.10;99.90
7894;DHT22;51343;51.396;6.656;2022-09-12T02:36:14;12.10;99.90
7894;DHT22;51343;51.396;6.656;2022-09-12T02:38:48;12.00;99.90
7894;DHT22;51343;51.396;6.656;2022-09-12T02:41:16;12.00;99.90
7894;DHT22;51343;51.396;6.656;2022-09-12T02:43:43;12.00;99.90
7894;DHT22;51343;51.396;6.656;2022-09-12T02:46:12;12.00;99.90
7894;DHT22;51343;51.396;6.656;2022-09-12T02:48:39;12.00;99.90
7894;DHT22;51343;51.396;6.656;2022-09-12T02:51:07;12.00;99.90
7894;DHT22;51343;51.396;6.656;2022-09-12T02:53:36;12.00;99.90
7894;DHT22;51343;51.396;6.656;2022-09-12T02:56:02;12.10;99.90
7894;DHT22;51343;51.396;6.656;2022-09-12T02:58:31;12.10;99.90
7894;DHT22;51343;51.396;6.656;2022-09-12T03:00:59;12.10;99.90
7894;DHT22;51343;51.396;6.656;2022-09-12T03:03:31;12.10;99.90
7894;DHT22;51343;51.396;6.656;2022-09-12T03:06:02;12.10;99.90
7894;DHT22;51343;51.396;6.656;2022-09-12T03:08:41;12.20;99.90
7894;DHT22;51343;51.396;6.656;2022-09-12T03:11:21;12.20;99.90
7894;DHT22;51343;51.396;6.656;2022-09-12T03:13:52;12.30;99.90
7894;DHT22;51343;51.396;6.656;2022-09-12T03:16:24;12.30;99.90
7894;DHT22;51343;51.396;6.656;2022-09-12T03:18:55;12.30;99.90
7894;DHT22;51343;51.396;6.656;2022-09-12T03:21:25;12.30;99.90
7894;DHT22;51343;51.396;6.656;2022-09-12T03:23:59;12.30;99.90
7894;DHT22;51343;51.396;6.656;2022-09-12T03:26:29;12.40;99.90
7894;DHT22;51343;51.396;6.656;2022-09-12T03:28:57;12.30;99.90
7894;DHT22;51343;51.396;6.656;2022-09-12T03:31:25;12.30;99.90
7894;DHT22;51343;51.396;6.656;2022-09-12T03:33:52;12.40;99.90
7894;DHT22;51343;51.396;6.656;2022-09-12T03:36:19;12.40;99.90
7894;DHT22;51343;51.396;6.656;2022-09-12T03:38:46;12.30;99.90
7894;DHT22;51343;51.396;6.656;2022-09-12T03:41:14;12.30;99.90
7894;DHT22;51343;51.396;6.656;2022-09-12T03:43:41;12.30;99.90
7894;DHT22;51343;51.396;6.656;2022-09-12T03:46:08;12.40;99.90
7894;DHT22;51343;51.396;6.656;2022-09-12T03:48:34;12.40;99.90
7894;DHT22;51343;51.396;6.656;2022-09-12T03:51:01;12.30;99.90
7894;DHT22;51343;51.396;6.656;2022-09-12T03:53:28;12.40;99.90
7894;DHT22;51343;51.396;6.656;2022-09-12T03:55:55;12.40;99.90
7894;DHT22;51343;51.396;6.656;2022-09-12T03:58:23;12.40;99.90
7894;DHT22;51343;51.396;6.656;2022-09-12T04:00:49;12.40;99.90
7894;DHT22;51343;51.396;6.656;2022-09-12T04:03:16;12.40;99.90
7894;DHT22;51343;51.396;6.656;2022-09-12T04:05:43;12.40;99.90
7894;DHT22;51343;51.396;6.656;2022-09-12T04:08:10;12.40;99.90
7894;DHT22;51343;51.396;6.656;2022-09-12T04:10:37;12.50;99.90
7894;DHT22;51343;51.396;6.656;2022-09-12T04:13:03;12.50;99.90
7894;DHT22;51343;51.396;6.656;2022-09-12T04:15:31;12.50;99.90
7894;DHT22;51343;51.396;6.656;2022-09-12T04:17:58;12.50;99.90
7894;DHT22;51343;51.396;6.656;2022-09-12T04:20:24;12.50;99.90
7894;DHT22;51343;51.396;6.656;2022-09-12T04:22:51;12.50;99.90
7894;DHT22;51343;51.396;6.656;2022-09-12T04:25:17;12.50;99.90
7894;DHT22;51343;51.396;6.656;2022-09-12T04:27:44;12.50;99.90
7894;DHT22;51343;51.396;6.656;2022-09-12T04:30:11;12.50;99.90
7894;DHT22;51343;51.396;6.656;2022-09-12T04:32:39;12.50;99.90
7894;DHT22;51343;51.396;6.656;2022-09-12T04:35:06;12.50;99.90
7894;DHT22;51343;51.396;6.656;2022-09-12T04:37:33;12.50;99.90
7894;DHT22;51343;51.396;6.656;2022-09-12T04:39:59;12.50;99.90
7894;DHT22;51343;51.396;6.656;2022-09-12T04:42:26;12.50;99.90
7894;DHT22;51343;51.396;6.656;2022-09-12T04:44:53;12.50;99.90
7894;DHT22;51343;51.396;6.656;2022-09-12T04:47:19;12.50;99.90
7894;DHT22;51343;51.396;6.656;2022-09-12T04:49:48;12.50;99.90
7894;DHT22;51343;51.396;6.656;2022-09-12T04:52:15;12.50;99.90
7894;DHT22;51343;51.396;6.656;2022-09-12T04:54:42;12.50;99.90
7894;DHT22;51343;51.396;6.656;2022-09-12T04:57:09;12.50;99.90
7894;DHT22;51343;51.396;6.656;2022-09-12T04:59:36;12.50;99.90
7894;DHT22;51343;51.396;6.656;2022-09-12T05:02:03;12.50;99.90
7894;DHT22;51343;51.396;6.656;2022-09-12T05:04:30;12.50;99.90
7894;DHT22;51343;51.396;6.656;2022-09-12T05:06:58;12.50;99.90
7894;DHT22;51343;51.396;6.656;2022-09-12T05:09:24;12.50;99.90
7894;DHT22;51343;51.396;6.656;2022-09-12T05:11:51;12.50;99.90
7894;DHT22;51343;51.396;6.656;2022-09-12T05:14:18;12.60;99.90
7894;DHT22;51343;51.396;6.656;2022-09-12T05:16:44;12.60;99.90
7894;DHT22;51343;51.396;6.656;2022-09-12T05:19:11;12.60;99.90
7894;DHT22;51343;51.396;6.656;2022-09-12T05:21:38;12.60;99.90
7894;DHT22;51343;51.396;6.656;2022-09-12T05:24:06;12.70;99.90
7894;DHT22;51343;51.396;6.656;2022-09-12T05:26:32;12.80;99.90
7894;DHT22;51343;51.396;6.656;2022-09-12T05:28:59;12.80;99.90
7894;DHT22;51343;51.396;6.656;2022-09-12T05:31:26;12.90;99.90
7894;DHT22;51343;51.396;6.656;2022-09-12T05:33:53;13.00;99.90
7894;DHT22;51343;51.396;6.656;2022-09-12T05:36:21;13.00;99.90
7894;DHT22;51343;51.396;6.656;2022-09-12T05:38:48;13.10;99.90
7894;DHT22;51343;51.396;6.656;2022-09-12T05:41:17;13.20;99.90
7894;DHT22;51343;51.396;6.656;2022-09-12T05:43:44;13.20;99.90
7894;DHT22;51343;51.396;6.656;2022-09-12T05:46:11;13.30;99.90
7894;DHT22;51343;51.396;6.656;2022-09-12T05:48:38;13.30;99.90
7894;DHT22;51343;51.396;6.656;2022-09-12T05:51:06;13.40;99.90
7894;DHT22;51343;51.396;6.656;2022-09-12T05:53:34;13.50;99.90
7894;DHT22;51343;51.396;6.656;2022-09-12T05:56:02;13.50;99.90
7894;DHT22;51343;51.396;6.656;2022-09-12T05:58:30;13.60;99.90
7894;DHT22;51343;51.396;6.656;2022-09-12T06:01:00;13.70;99.90
7894;DHT22;51343;51.396;6.656;2022-09-12T06:03:27;13.70;99.90
7894;DHT22;51343;51.396;6.656;2022-09-12T06:05:53;13.80;99.90
7894;DHT22;51343;51.396;6.656;2022-09-12T06:08:20;13.90;99.90
7894;DHT22;51343;51.396;6.656;2022-09-12T06:10:46;14.00;99.90
7894;DHT22;51343;51.396;6.656;2022-09-12T06:13:13;14.10;99.90
7894;DHT22;51343;51.396;6.656;2022-09-12T06:15:41;14.20;99.90
7894;DHT22;51343;51.396;6.656;2022-09-12T06:18:08;14.30;99.90
7894;DHT22;51343;51.396;6.656;2022-09-12T06:20:36;14.40;99.90
7894;DHT22;51343;51.396;6.656;2022-09-12T06:23:02;14.50;99.90
7894;DHT22;51343;51.396;6.656;2022-09-12T06:25:29;14.60;99.90
7894;DHT22;51343;51.396;6.656;2022-09-12T06:27:55;14.60;99.90
7894;DHT22;51343;51.396;6.656;2022-09-12T06:30:22;14.80;99.90
7894;DHT22;51343;51.396;6.656;2022-09-12T06:32:50;14.90;99.90
7894;DHT22;51343;51.396;6.656;2022-09-12T06:35:16;14.90;99.90
7894;DHT22;51343;51.396;6.656;2022-09-12T06:37:43;15.10;99.90
7894;DHT22;51343;51.396;6.656;2022-09-12T06:40:10;15.20;99.90
7894;DHT22;51343;51.396;6.656;2022-09-12T06:42:36;15.20;99.90
7894;DHT22;51343;51.396;6.656;2022-09-12T06:45:03;15.30;99.90
7894;DHT22;51343;51.396;6.656;2022-09-12T06:47:30;15.30;99.90
7894;DHT22;51343;51.396;6.656;2022-09-12T06:49:58;15.30;99.90
7894;DHT22;51343;51.396;6.656;2022-09-12T06:52:25;15.40;99.90
7894;DHT22;51343;51.396;6.656;2022-09-12T06:54:53;15.40;99.90
7894;DHT22;51343;51.396;6.656;2022-09-12T06:57:20;15.50;99.90
7894;DHT22;51343;51.396;6.656;2022-09-12T06:59:46;15.50;99.90
7894;DHT22;51343;51.396;6.656;2022-09-12T07:02:13;15.60;99.90
7894;DHT22;51343;51.396;6.656;2022-09-12T07:04:39;15.60;99.90
7894;DHT22;51343;51.396;6.656;2022-09-12T07:07:07;15.60;99.90
7894;DHT22;51343;51.396;6.656;2022-09-12T07:09:34;15.60;99.90
7894;DHT22;51343;51.396;6.656;2022-09-12T07:12:01;15.60;99.90
7894;DHT22;51343;51.396;6.656;2022-09-12T07:14:28;15.70;99.90
7894;DHT22;51343;51.396;6.656;2022-09-12T07:16:55;15.70;99.90
7894;DHT22;51343;51.396;6.656;2022-09-12T07:19:23;15.80;99.90
7894;DHT22;51343;51.396;6.656;2022-09-12T07:21:50;15.80;99.90
7894;DHT22;51343;51.396;6.656;2022-09-12T07:24:18;15.90;99.90
7894;DHT22;51343;51.396;6.656;2022-09-12T07:26:45;16.00;99.90
7894;DHT22;51343;51.396;6.656;2022-09-12T07:29:12;16.00;99.90
7894;DHT22;51343;51.396;6.656;2022-09-12T07:31:39;16.00;99.90
7894;DHT22;51343;51.396;6.656;2022-09-12T07:34:06;16.00;99.90
7894;DHT22;51343;51.396;6.656;2022-09-12T07:36:32;16.10;99.90
7894;DHT22;51343;51.396;6.656;2022-09-12T07:38:59;16.20;99.90
7894;DHT22;51343;51.396;6.656;2022-09-12T07:41:28;16.20;99.90
7894;DHT22;51343;51.396;6.656;2022-09-12T07:43:55;16.20;99.90
7894;DHT22;51343;51.396;6.656;2022-09-12T07:46:22;16.20;99.90
7894;DHT22;51343;51.396;6.656;2022-09-12T07:48:50;16.30;99.90
7894;DHT22;51343;51.396;6.656;2022-09-12T07:51:17;16.20;99.90
7894;DHT22;51343;51.396;6.656;2022-09-12T07:53:44;16.30;99.90
7894;DHT22;51343;51.396;6.656;2022-09-12T07:56:11;16.30;99.90
7894;DHT22;51343;51.396;6.656;2022-09-12T07:58:39;16.30;99.90
7894;DHT22;51343;51.396;6.656;2022-09-12T08:01:07;16.40;99.90
7894;DHT22;51343;51.396;6.656;2022-09-12T08:03:34;16.40;99.90
7894;DHT22;51343;51.396;6.656;2022-09-12T08:06:04;16.30;99.90
7894;DHT22;51343;51.396;6.656;2022-09-12T08:08:31;16.40;99.90
7894;DHT22;51343;51.396;6.656;2022-09-12T08:10:58;16.40;99.90
7894;DHT22;51343;51.396;6.656;2022-09-12T08:13:25;16.40;99.90
7894;DHT22;51343;51.396;6.656;2022-09-12T08:15:56;16.40;99.90
7894;DHT22;51343;51.396;6.656;2022-09-12T08:18:24;16.40;99.90
7894;DHT22;51343;51.396;6.656;2022-09-12T08:20:54;16.50;99.90
7894;DHT22;51343;51.396;6.656;2022-09-12T08:23:21;16.60;99.90
7894;DHT22;51343;51.396;6.656;2022-09-12T08:25:48;16.70;99.90
7894;DHT22;51343;51.396;6.656;2022-09-12T08:28:15;16.80;99.90
7894;DHT22;51343;51.396;6.656;2022-09-12T08:30:42;17.00;99.90
7894;DHT22;51343;51.396;6.656;2022-09-12T08:33:09;17.10;99.90
7894;DHT22;51343;51.396;6.656;2022-09-12T08:35:36;17.30;99.90
7894;DHT22;51343;51.396;6.656;2022-09-12T08:38:03;17.30;99.90
7894;DHT22;51343;51.396;6.656;2022-09-12T08:40:29;17.40;99.90
7894;DHT22;51343;51.396;6.656;2022-09-12T08:42:57;17.40;99.90
7894;DHT22;51343;51.396;6.656;2022-09-12T08:45:28;17.40;99.90
7894;DHT22;51343;51.396;6.656;2022-09-12T08:47:57;17.50;99.90
7894;DHT22;51343;51.396;6.656;2022-09-12T08:50:25;17.40;99.90
7894;DHT22;51343;51.396;6.656;2022-09-12T08:52:53;17.50;99.90
7894;DHT22;51343;51.396;6.656;2022-09-12T08:55:33;17.50;99.90
7894;DHT22;51343;51.396;6.656;2022-09-12T08:58:00;17.60;99.90
7894;DHT22;51343;51.396;6.656;2022-09-12T09:00:29;17.70;99.90
7894;DHT22;51343;51.396;6.656;2022-09-12T09:05:53;18.00;99.90
7894;DHT22;51343;51.396;6.656;2022-09-12T09:08:36;18.10;99.90
7894;DHT22;51343;51.396;6.656;2022-09-12T09:11:08;18.20;99.90
7894;DHT22;51343;51.396;6.656;2022-09-12T09:13:42;18.30;99.90
7894;DHT22;51343;51.396;6.656;2022-09-12T09:16:29;18.40;99.90
7894;DHT22;51343;51.396;6.656;2022-09-12T09:18:57;18.50;99.90
7894;DHT22;51343;51.396;6.656;2022-09-12T09:21:28;18.60;1.00
7894;DHT22;51343;51.396;6.656;2022-09-12T09:23:58;18.60;99.90
7894;DHT22;51343;51.396;6.656;2022-09-12T09:26:27;18.70;1.00
7894;DHT22;51343;51.396;6.656;2022-09-12T09:28:56;18.80;20.80
7894;DHT22;51343;51.396;6.656;2022-09-12T09:31:24;18.90;1.00
7894;DHT22;51343;51.396;6.656;2022-09-12T09:33:51;19.00;99.90
7894;DHT22;51343;51.396;6.656;2022-09-12T09:36:19;19.20;1.00
7894;DHT22;51343;51.396;6.656;2022-09-12T09:38:48;19.30;1.00
7894;DHT22;51343;51.396;6.656;2022-09-12T09:41:19;19.40;95.00
7894;DHT22;51343;51.396;6.656;2022-09-12T09:43:48;19.60;1.00
7894;DHT22;51343;51.396;6.656;2022-09-12T09:46:14;19.80;1.00
7894;DHT22;51343;51.396;6.656;2022-09-12T09:48:42;19.80;1.00
7894;DHT22;51343;51.396;6.656;2022-09-12T09:51:10;20.10;1.00
7894;DHT22;51343;51.396;6.656;2022-09-12T09:53:39;20.20;1.00
7894;DHT22;51343;51.396;6.656;2022-09-12T09:56:11;20.30;99.90
7894;DHT22;51343;51.396;6.656;2022-09-12T09:58:39;20.40;1.00
7894;DHT22;51343;51.396;6.656;2022-09-12T10:01:11;20.50;1.00
7894;DHT22;51343;51.396;6.656;2022-09-12T10:03:39;20.60;1.00
7894;DHT22;51343;51.396;6.656;2022-09-12T10:06:07;20.80;1.00
7894;DHT22;51343;51.396;6.656;2022-09-12T10:08:46;20.90;1.00
7894;DHT22;51343;51.396;6.656;2022-09-12T10:11:18;21.10;99.90
7894;DHT22;51343;51.396;6.656;2022-09-12T10:13:51;21.40;1.00
7894;DHT22;51343;51.396;6.656;2022-09-12T10:16:18;21.70;1.00
7894;DHT22;51343;51.396;6.656;2022-09-12T10:18:46;22.20;1.00
7894;DHT22;51343;51.396;6.656;2022-09-12T10:21:21;22.50;99.90
7894;DHT22;51343;51.396;6.656;2022-09-12T10:23:50;22.60;99.90
7894;DHT22;51343;51.396;6.656;2022-09-12T10:26:19;22.70;99.90
7894;DHT22;51343;51.396;6.656;2022-09-12T10:28:48;22.90;99.90
7894;DHT22;51343;51.396;6.656;2022-09-12T10:31:22;23.10;99.90
7894;DHT22;51343;51.396;6.656;2022-09-12T10:33:54;23.50;99.90
7894;DHT22;51343;51.396;6.656;2022-09-12T10:36:21;23.50;1.00
7894;DHT22;51343;51.396;6.656;2022-09-12T10:38:49;23.60;1.00
7894;DHT22;51343;51.396;6.656;2022-09-12T10:41:16;23.50;1.00
7894;DHT22;51343;51.396;6.656;2022-09-12T10:43:44;23.80;1.00
7894;DHT22;51343;51.396;6.656;2022-09-12T10:46:22;24.20;1.00
7894;DHT22;51343;51.396;6.656;2022-09-12T10:51:37;24.30;1.00
7894;DHT22;51343;51.396;6.656;2022-09-12T10:54:04;24.50;1.00
7894;DHT22;51343;51.396;6.656;2022-09-12T10:56:33;24.60;1.00
7894;DHT22;51343;51.396;6.656;2022-09-12T10:59:05;24.40;1.00
7894;DHT22;51343;51.396;6.656;2022-09-12T11:01:38;24.70;1.00
7894;DHT22;51343;51.396;6.656;2022-09-12T11:06:49;25.30;1.00
7894;DHT22;51343;51.396;6.656;2022-09-12T11:09:19;25.20;1.00
7894;DHT22;51343;51.396;6.656;2022-09-12T11:11:57;25.50;1.00
7894;DHT22;51343;51.396;6.656;2022-09-12T11:14:41;25.60;1.00
7894;DHT22;51343;51.396;6.656;2022-09-12T11:17:15;25.30;1.00
7894;DHT22;51343;51.396;6.656;2022-09-12T11:22:41;25.50;1.00
7894;DHT22;51343;51.396;6.656;2022-09-12T11:25:17;25.70;1.00
7894;DHT22;51343;51.396;6.656;2022-09-12T11:27:52;25.90;1.00
7894;DHT22;51343;51.396;6.656;2022-09-12T11:30:21;25.40;1.00
7894;DHT22;51343;51.396;6.656;2022-09-12T11:32:51;25.10;1.00
7894;DHT22;51343;51.396;6.656;2022-09-12T11:35:25;25.20;1.00
7894;DHT22;51343;51.396;6.656;2022-09-12T11:37:58;25.20;1.00
7894;DHT22;51343;51.396;6.656;2022-09-12T11:40:28;25.40;1.00
7894;DHT22;51343;51.396;6.656;2022-09-12T11:42:58;25.40;1.00
7894;DHT22;51343;51.396;6.656;2022-09-12T11:45:29;25.90;1.00
7894;DHT22;51343;51.396;6.656;2022-09-12T11:47:58;25.80;1.00
7894;DHT22;51343;51.396;6.656;2022-09-12T11:50:28;25.80;1.00
7894;DHT22;51343;51.396;6.656;2022-09-12T11:52:56;26.10;1.00
7894;DHT22;51343;51.396;6.656;2022-09-12T11:55:24;25.80;1.00
7894;DHT22;51343;51.396;6.656;2022-09-12T11:57:53;26.20;1.00
7894;DHT22;51343;51.396;6.656;2022-09-12T12:00:20;26.40;1.00
7894;DHT22;51343;51.396;6.656;2022-09-12T12:02:57;26.40;1.00
7894;DHT22;51343;51.396;6.656;2022-09-12T12:05:28;26.20;1.00
7894;DHT22;51343;51.396;6.656;2022-09-12T12:07:56;26.50;1.00
7894;DHT22;51343;51.396;6.656;2022-09-12T12:10:25;26.40;1.00
7894;DHT22;51343;51.396;6.656;2022-09-12T12:12:53;26.60;1.00
7894;DHT22;51343;51.396;6.656;2022-09-12T12:15:20;26.40;1.00
7894;DHT22;51343;51.396;6.656;2022-09-12T12:17:59;26.50;1.00
7894;DHT22;51343;51.396;6.656;2022-09-12T12:20:27;26.50;1.00
7894;DHT22;51343;51.396;6.656;2022-09-12T12:22:54;26.40;1.00
7894;DHT22;51343;51.396;6.656;2022-09-12T12:25:22;26.50;1.00
7894;DHT22;51343;51.396;6.656;2022-09-12T12:27:51;26.80;1.00
7894;DHT22;51343;51.396;6.656;2022-09-12T12:33:49;27.10;1.00
7894;DHT22;51343;51.396;6.656;2022-09-12T12:36:02;27.20;1.00
7894;DHT22;51343;51.396;6.656;2022-09-12T12:38:29;27.00;1.00
7894;DHT22;51343;51.396;6.656;2022-09-12T12:43:42;27.10;1.00
7894;DHT22;51343;51.396;6.656;2022-09-12T12:46:10;26.90;1.00
7894;DHT22;51343;51.396;6.656;2022-09-12T12:48:45;26.90;1.00
7894;DHT22;51343;51.396;6.656;2022-09-12T12:51:19;26.80;1.00
7894;DHT22;51343;51.396;6.656;2022-09-12T12:53:49;27.30;1.00
7894;DHT22;51343;51.396;6.656;2022-09-12T12:56:33;27.60;1.00
7894;DHT22;51343;51.396;6.656;2022-09-12T12:59:02;27.70;1.00
7894;DHT22;51343;51.396;6.656;2022-09-12T13:01:30;28.00;1.00
7894;DHT22;51343;51.396;6.656;2022-09-12T13:04:09;27.60;20.00
7894;DHT22;51343;51.396;6.656;2022-09-12T13:06:41;27.80;1.00
7894;DHT22;51343;51.396;6.656;2022-09-12T13:09:16;27.60;1.00
7894;DHT22;51343;51.396;6.656;2022-09-12T13:11:44;28.00;1.00
7894;DHT22;51343;51.396;6.656;2022-09-12T13:16:53;27.80;1.00
7894;DHT22;51343;51.396;6.656;2022-09-12T13:19:22;27.60;1.00
7894;DHT22;51343;51.396;6.656;2022-09-12T13:21:58;27.80;1.00
7894;DHT22;51343;51.396;6.656;2022-09-12T13:24:25;27.60;1.00
7894;DHT22;51343;51.396;6.656;2022-09-12T13:26:51;28.20;11.20
7894;DHT22;51343;51.396;6.656;2022-09-12T13:29:19;28.70;47.70
7894;DHT22;51343;51.396;6.656;2022-09-12T13:31:47;28.90;13.30
7894;DHT22;51343;51.396;6.656;2022-09-12T13:34:16;28.20;21.00
7894;DHT22;51343;51.396;6.656;2022-09-12T13:36:50;27.50;1.00
7894;DHT22;51343;51.396;6.656;2022-09-12T13:39:23;27.90;1.00
7894;DHT22;51343;51.396;6.656;2022-09-12T13:42:01;27.80;15.10
7894;DHT22;51343;51.396;6.656;2022-09-12T13:44:29;27.90;95.20
7894;DHT22;51343;51.396;6.656;2022-09-12T13:46:58;28.00;60.00
7894;DHT22;51343;51.396;6.656;2022-09-12T13:49:26;27.80;91.20
7894;DHT22;51343;51.396;6.656;2022-09-12T13:51:57;27.80;98.50
7894;DHT22;51343;51.396;6.656;2022-09-12T13:54:26;28.00;54.60
7894;DHT22;51343;51.396;6.656;2022-09-12T13:56:53;28.30;46.80
7894;DHT22;51343;51.396;6.656;2022-09-12T13:59:21;28.50;20.90
7894;DHT22;51343;51.396;6.656;2022-09-12T14:01:48;28.30;1.00
7894;DHT22;51343;51.396;6.656;2022-09-12T14:04:15;28.30;67.00
7894;DHT22;51343;51.396;6.656;2022-09-12T14:07:00;28.40;91.20
7894;DHT22;51343;51.396;6.656;2022-09-12T14:09:29;28.90;56.70
7894;DHT22;51343;51.396;6.656;2022-09-12T14:11:57;29.10;99.90
7894;DHT22;51343;51.396;6.656;2022-09-12T14:14:25;29.30;99.90
7894;DHT22;51343;51.396;6.656;2022-09-12T14:16:56;29.00;99.90
7894;DHT22;51343;51.396;6.656;2022-09-12T14:19:22;28.70;86.50
7894;DHT22;51343;51.396;6.656;2022-09-12T14:21:51;28.50;68.50
7894;DHT22;51343;51.396;6.656;2022-09-12T14:24:17;28.40;99.90
7894;DHT22;51343;51.396;6.656;2022-09-12T14:26:51;28.90;72.80
7894;DHT22;51343;51.396;6.656;2022-09-12T14:29:21;29.60;47.40
7894;DHT22;51343;51.396;6.656;2022-09-12T14:31:58;29.60;99.90
7894;DHT22;51343;51.396;6.656;2022-09-12T14:34:25;29.40;99.90
7894;DHT22;51343;51.396;6.656;2022-09-12T14:36:52;28.50;99.90
7894;DHT22;51343;51.396;6.656;2022-09-12T14:39:22;27.80;14.00
7894;DHT22;51343;51.396;6.656;2022-09-12T14:41:58;27.70;1.00
7894;DHT22;51343;51.396;6.656;2022-09-12T14:44:26;27.70;1.00
7894;DHT22;51343;51.396;6.656;2022-09-12T14:46:54;27.40;1.00
7894;DHT22;51343;51.396;6.656;2022-09-12T14:49:22;27.50;1.00
7894;DHT22;51343;51.396;6.656;2022-09-12T14:51:52;27.80;1.00
7894;DHT22;51343;51.396;6.656;2022-09-12T14:54:36;27.40;1.00
7894;DHT22;51343;51.396;6.656;2022-09-12T14:57:05;27.40;93.90
7894;DHT22;51343;51.396;6.656;2022-09-12T14:59:35;27.10;38.80
7894;DHT22;51343;51.396;6.656;2022-09-12T15:02:21;27.00;18.50
7894;DHT22;51343;51.396;6.656;2022-09-12T15:04:50;26.60;1.00
7894;DHT22;51343;51.396;6.656;2022-09-12T15:07:20;26.40;1.00
7894;DHT22;51343;51.396;6.656;2022-09-12T15:09:50;26.40;1.00
7894;DHT22;51343;51.396;6.656;2022-09-12T15:12:18;26.20;1.00
7894;DHT22;51343;51.396;6.656;2022-09-12T15:14:45;25.90;1.00
7894;DHT22;51343;51.396;6.656;2022-09-12T15:17:12;25.80;1.00
7894;DHT22;51343;51.396;6.656;2022-09-12T15:19:39;25.90;1.00
7894;DHT22;51343;51.396;6.656;2022-09-12T15:22:07;26.10;1.00
7894;DHT22;51343;51.396;6.656;2022-09-12T15:24:34;26.20;1.00
7894;DHT22;51343;51.396;6.656;2022-09-12T15:27:04;26.30;1.00
7894;DHT22;51343;51.396;6.656;2022-09-12T15:29:32;26.20;1.00
7894;DHT22;51343;51.396;6.656;2022-09-12T15:31:58;25.90;1.00
7894;DHT22;51343;51.396;6.656;2022-09-12T15:34:25;25.80;1.00
7894;DHT22;51343;51.396;6.656;2022-09-12T15:36:52;25.80;1.00
7894;DHT22;51343;51.396;6.656;2022-09-12T15:39:18;25.50;1.00
7894;DHT22;51343;51.396;6.656;2022-09-12T15:41:45;25.40;1.00
7894;DHT22;51343;51.396;6.656;2022-09-12T15:44:12;25.10;1.00
7894;DHT22;51343;51.396;6.656;2022-09-12T15:46:40;24.80;1.00
7894;DHT22;51343;51.396;6.656;2022-09-12T15:49:07;24.80;1.00
7894;DHT22;51343;51.396;6.656;2022-09-12T15:51:34;24.70;1.00
7894;DHT22;51343;51.396;6.656;2022-09-12T15:54:01;24.70;1.00
7894;DHT22;51343;51.396;6.656;2022-09-12T15:56:29;24.70;1.00
7894;DHT22;51343;51.396;6.656;2022-09-12T15:58:55;24.80;1.00
7894;DHT22;51343;51.396;6.656;2022-09-12T16:01:22;24.70;1.00
7894;DHT22;51343;51.396;6.656;2022-09-12T16:03:50;24.70;1.00
7894;DHT22;51343;51.396;6.656;2022-09-12T16:06:17;24.70;1.00
7894;DHT22;51343;51.396;6.656;2022-09-12T16:08:43;24.50;1.00
7894;DHT22;51343;51.396;6.656;2022-09-12T16:11:11;24.50;1.00
7894;DHT22;51343;51.396;6.656;2022-09-12T16:13:39;24.30;1.00
7894;DHT22;51343;51.396;6.656;2022-09-12T16:16:06;24.30;1.00
7894;DHT22;51343;51.396;6.656;2022-09-12T16:18:32;24.20;1.00
7894;DHT22;51343;51.396;6.656;2022-09-12T16:21:00;24.10;1.00
7894;DHT22;51343;51.396;6.656;2022-09-12T16:23:27;24.20;1.00
7894;DHT22;51343;51.396;6.656;2022-09-12T16:25:57;24.20;1.00